LFRJ

Landivisiau Air Base

Airport
ICAO code
LFRJ
Summary
ICAO Region
EUR
ICAO Territory
Location

, Bretagne

Serving
Landivisiau
Elevation
348 ft
Coordinates
48° 31' 49" N , 4° 9' 6" W
Metar
LFRJ 140430Z AUTO 21012KT 9999 FEW017 SCT034 OVC042 12/11 Q1006

Runways

Designator Length Width Surface Rops
8/26 2700 45 CON No/No

Airport map

Aerial View

SKYbrary Partners:

Safety knowledge contributed by: